createdAt,value
2022-11-04T00:00:01.639Z,57.65
2022-11-04T00:04:02.481Z,57.46
2022-11-04T00:08:15.033Z,58.19
2022-11-04T00:12:29.808Z,58.29
2022-11-04T00:16:42.410Z,57.98
2022-11-04T00:20:54.956Z,59.07
2022-11-04T00:25:07.512Z,58.80
2022-11-04T00:29:10.175Z,58.49
2022-11-04T00:33:22.784Z,58.38
2022-11-04T00:37:22.980Z,59.02
2022-11-04T00:41:30.485Z,59.84
2022-11-04T00:45:34.081Z,60.45
2022-11-04T00:49:34.191Z,60.57
2022-11-04T00:53:34.287Z,60.09
2022-11-04T00:57:34.826Z,60.47
2022-11-04T01:01:37.585Z,60.20
2022-11-04T01:05:40.693Z,60.07
2022-11-04T01:09:41.039Z,59.82
2022-11-04T01:13:42.674Z,60.30
2022-11-04T01:17:45.349Z,59.89
2022-11-04T01:21:45.542Z,59.72
2022-11-04T01:25:45.713Z,59.85
2022-11-04T01:29:46.175Z,60.78
2022-11-04T01:33:48.867Z,60.66
2022-11-04T01:37:49.073Z,61.14
2022-11-04T01:41:49.171Z,60.81
2022-11-04T01:45:55.567Z,61.28
2022-11-04T01:50:04.808Z,60.68
2022-11-04T01:54:07.569Z,60.77
2022-11-04T01:58:13.830Z,60.72
2022-11-04T02:02:14.056Z,61.53
2022-11-04T02:06:19.918Z,62.22
2022-11-04T02:10:23.344Z,63.00
2022-11-04T02:14:23.541Z,62.50
2022-11-04T02:18:50.648Z,61.90
2022-11-04T02:23:44.197Z,61.49
2022-11-04T02:28:14.717Z,61.99
2022-11-04T02:32:30.343Z,62.58
2022-11-04T02:36:42.937Z,61.67
2022-11-04T02:40:52.158Z,61.82
2022-11-04T02:45:02.805Z,61.57
2022-11-04T02:49:15.955Z,61.37
2022-11-04T02:53:23.477Z,61.40
2022-11-04T02:57:31.480Z,61.32
2022-11-04T03:01:39.306Z,59.63
2022-11-04T03:05:47.336Z,60.12
2022-11-04T03:09:54.665Z,59.10
2022-11-04T03:14:03.532Z,59.63
2022-11-04T03:18:18.288Z,58.54
2022-11-04T03:22:25.121Z,57.94
2022-11-04T03:26:33.702Z,58.29
2022-11-04T03:30:41.900Z,57.95
2022-11-04T03:34:42.534Z,57.74
2022-11-04T03:38:45.652Z,57.70
2022-11-04T03:42:53.422Z,56.83
2022-11-04T03:46:55.361Z,57.44
2022-11-04T03:50:55.507Z,57.95
2022-11-04T03:54:58.289Z,58.23
2022-11-04T03:59:18.921Z,58.31
2022-11-04T04:03:28.438Z,58.29
2022-11-04T04:07:37.042Z,56.97
2022-11-04T04:11:51.030Z,57.06
2022-11-04T04:15:59.704Z,56.48
2022-11-04T04:20:04.944Z,56.24
2022-11-04T04:24:23.699Z,56.05
2022-11-04T04:28:27.150Z,56.79
2022-11-04T04:32:33.038Z,57.35
2022-11-04T04:36:42.243Z,56.22
2022-11-04T04:40:55.333Z,55.78
2022-11-04T04:45:06.141Z,55.96
2022-11-04T04:49:10.384Z,55.87
2022-11-04T04:53:11.343Z,56.47
2022-11-04T04:57:11.844Z,55.90
2022-11-04T05:01:14.931Z,55.38
2022-11-04T05:05:16.667Z,55.64
2022-11-04T05:09:16.895Z,55.91
2022-11-04T05:13:30.183Z,55.40
2022-11-04T05:17:33.032Z,54.90
2022-11-04T05:21:33.235Z,54.95
2022-11-04T05:25:33.461Z,54.64
2022-11-04T05:29:33.672Z,54.78
2022-11-04T05:33:36.765Z,54.32
2022-11-04T05:37:36.879Z,55.05
2022-11-04T05:41:37.450Z,55.15
2022-11-04T05:45:37.533Z,55.23
2022-11-04T05:49:40.268Z,55.50
2022-11-04T05:53:40.382Z,55.23
2022-11-04T05:57:40.544Z,55.07
2022-11-04T06:01:44.295Z,55.05
2022-11-04T06:05:47.045Z,55.03
2022-11-04T06:09:47.121Z,54.73
2022-11-04T06:13:47.229Z,54.58
2022-11-04T06:17:47.515Z,54.10
2022-11-04T06:21:50.407Z,54.05
2022-11-04T06:25:50.533Z,53.96
2022-11-04T06:29:50.720Z,54.39
2022-11-04T06:33:52.121Z,53.33
2022-11-04T06:37:54.739Z,53.70
2022-11-04T06:41:56.668Z,54.24
2022-11-04T06:46:01.922Z,53.69
2022-11-04T06:50:02.061Z,54.62
2022-11-04T06:54:04.739Z,54.72
2022-11-04T06:58:04.991Z,54.22
2022-11-04T07:02:05.180Z,54.68
2022-11-04T07:06:10.613Z,54.46
2022-11-04T07:10:14.095Z,54.63
2022-11-04T07:14:15.101Z,54.26
2022-11-04T07:18:15.255Z,53.29
2022-11-04T07:22:15.376Z,52.85
2022-11-04T07:26:18.376Z,52.58
2022-11-04T07:30:20.353Z,52.17
2022-11-04T07:34:28.817Z,52.35
2022-11-04T07:38:29.028Z,52.65
2022-11-04T07:42:32.130Z,53.11
2022-11-04T07:46:39.019Z,53.35
2022-11-04T07:50:42.952Z,53.08
2022-11-04T07:54:43.170Z,52.42
2022-11-04T07:58:46.295Z,52.54
2022-11-04T08:02:47.337Z,52.60
2022-11-04T08:06:50.414Z,53.29
2022-11-04T08:10:57.160Z,53.58
2022-11-04T08:14:59.907Z,53.94
2022-11-04T08:19:01.931Z,53.50
2022-11-04T08:23:02.091Z,54.14
2022-11-04T08:27:02.309Z,53.55
2022-11-04T08:31:09.126Z,53.66
2022-11-04T08:35:12.096Z,54.16
2022-11-04T08:39:13.725Z,53.83
2022-11-04T08:43:14.343Z,53.58
2022-11-04T08:47:17.070Z,52.87
2022-11-04T08:51:21.675Z,52.84
2022-11-04T08:55:24.772Z,52.84
2022-11-04T08:59:27.804Z,52.05
2022-11-04T09:03:30.557Z,51.89
2022-11-04T09:07:30.817Z,52.55
2022-11-04T09:11:31.409Z,52.06
2022-11-04T09:15:31.545Z,52.62
2022-11-04T09:19:34.380Z,53.06
2022-11-04T09:23:34.900Z,52.67
2022-11-04T09:27:35.130Z,53.10
2022-11-04T09:31:35.314Z,53.35
2022-11-04T09:35:38.403Z,52.54
2022-11-04T09:39:38.553Z,52.16
2022-11-04T09:43:56.376Z,52.13
2022-11-04T09:48:02.608Z,51.63
2022-11-04T09:52:15.727Z,50.27
2022-11-04T09:56:23.915Z,50.17
2022-11-04T10:00:24.980Z,49.94
2022-11-04T10:04:42.231Z,49.86
2022-11-04T10:09:03.145Z,50.33
2022-11-04T10:13:23.523Z,50.83
2022-11-04T10:17:51.211Z,50.91
2022-11-04T10:22:07.513Z,49.83
2022-11-04T10:26:20.783Z,49.59
2022-11-04T10:30:25.034Z,49.68
2022-11-04T10:34:37.911Z,49.95
2022-11-04T10:38:44.008Z,50.47
2022-11-04T10:42:47.145Z,50.26
2022-11-04T10:47:02.296Z,50.65
2022-11-04T10:51:03.223Z,50.25
2022-11-04T10:55:03.493Z,50.64
2022-11-04T10:59:26.085Z,50.79
2022-11-04T11:03:34.463Z,49.87
2022-11-04T11:07:40.058Z,49.43
2022-11-04T11:11:48.140Z,50.11
2022-11-04T11:15:51.147Z,49.41
2022-11-04T11:20:00.788Z,49.64
2022-11-04T11:24:20.906Z,49.76
2022-11-04T11:28:27.960Z,50.75
2022-11-04T11:32:43.392Z,49.30
2022-11-04T11:36:48.193Z,48.73
2022-11-04T11:41:18.679Z,49.46
2022-11-04T11:45:20.088Z,49.55
2022-11-04T11:49:31.296Z,49.90
2022-11-04T11:53:35.619Z,48.40
2022-11-04T12:02:31.522Z,47.07
2022-11-04T12:11:30.625Z,45.47
2022-11-04T12:15:48.064Z,45.29
2022-11-04T12:20:10.164Z,45.04
2022-11-04T12:24:32.962Z,44.57
2022-11-04T12:28:49.792Z,43.66
2022-11-04T12:33:13.202Z,44.67
2022-11-04T12:37:31.441Z,45.20
2022-11-04T12:42:18.949Z,45.52
2022-11-04T12:46:20.783Z,45.38
2022-11-04T12:50:49.885Z,45.10
2022-11-04T12:55:09.043Z,44.75
2022-11-04T12:59:52.180Z,45.02
2022-11-04T13:04:00.848Z,45.80
2022-11-04T13:08:14.622Z,46.28
2022-11-04T13:12:39.219Z,45.86
2022-11-04T13:16:46.811Z,46.56
2022-11-04T13:21:02.124Z,46.17
2022-11-04T13:25:11.176Z,45.63
2022-11-04T13:29:21.393Z,45.25
2022-11-04T13:33:38.823Z,44.51
2022-11-04T13:37:47.402Z,45.26
2022-11-04T13:42:39.845Z,44.84
2022-11-04T13:46:40.109Z,44.55
2022-11-04T13:50:43.771Z,45.28
2022-11-04T13:54:48.559Z,45.24
2022-11-04T13:58:56.028Z,44.99
2022-11-04T14:02:58.841Z,45.04
2022-11-04T14:07:05.094Z,45.33
2022-11-04T14:11:14.786Z,45.21
2022-11-04T14:20:01.763Z,44.77
2022-11-04T14:24:16.776Z,45.34
2022-11-04T14:28:31.153Z,45.63
2022-11-04T14:32:42.974Z,46.33
2022-11-04T14:36:44.696Z,46.15
2022-11-04T14:40:54.978Z,46.74
2022-11-04T14:44:55.323Z,47.08
2022-11-04T14:49:01.877Z,47.57
2022-11-04T14:53:07.355Z,47.57
2022-11-04T14:57:18.000Z,47.57
2022-11-04T15:01:19.843Z,48.13
2022-11-04T15:05:29.698Z,48.21
2022-11-04T15:09:35.222Z,47.89
2022-11-04T15:13:47.781Z,48.99
2022-11-04T15:17:47.947Z,48.78
2022-11-04T15:21:51.510Z,48.94
2022-11-04T15:25:52.847Z,48.92
2022-11-04T15:30:08.165Z,48.66
2022-11-04T15:34:14.466Z,48.88
2022-11-04T15:38:18.187Z,49.01
2022-11-04T15:42:48.730Z,48.89
2022-11-04T15:46:59.043Z,49.22
2022-11-04T15:51:15.660Z,49.55
2022-11-04T15:55:25.442Z,49.36
2022-11-04T15:59:31.031Z,50.20
2022-11-04T16:03:34.081Z,50.16
2022-11-04T16:07:40.523Z,50.20
2022-11-04T16:11:41.152Z,50.80
2022-11-04T16:15:45.726Z,50.48
2022-11-04T16:19:54.874Z,51.02
2022-11-04T16:24:01.618Z,50.82
2022-11-04T16:28:02.098Z,50.94
2022-11-04T16:32:19.844Z,51.26
2022-11-04T16:36:30.922Z,51.87
2022-11-04T16:40:36.969Z,51.16
2022-11-04T16:44:37.130Z,51.37
2022-11-04T16:48:37.162Z,51.71
2022-11-04T16:52:44.064Z,51.72
2022-11-04T16:56:45.499Z,52.07
2022-11-04T17:00:45.739Z,51.61
2022-11-04T17:04:46.759Z,52.12
2022-11-04T17:08:49.943Z,51.98
2022-11-04T17:12:50.500Z,52.05
2022-11-04T17:16:50.608Z,52.04
2022-11-04T17:20:57.149Z,51.95
2022-11-04T17:24:59.869Z,52.67
2022-11-04T17:29:00.364Z,52.42
2022-11-04T17:33:00.600Z,52.80
2022-11-04T17:37:00.686Z,53.12
2022-11-04T17:41:15.928Z,52.87
2022-11-04T17:45:16.001Z,53.44
2022-11-04T17:49:19.009Z,53.44
2022-11-04T17:53:19.084Z,53.48
2022-11-04T17:57:22.317Z,53.63
2022-11-04T18:01:26.069Z,54.39
2022-11-04T18:05:26.212Z,54.92
2022-11-04T18:09:26.423Z,54.81
2022-11-04T18:13:29.335Z,54.27
2022-11-04T18:17:29.411Z,54.81
2022-11-04T18:21:31.075Z,54.43
2022-11-04T18:25:31.163Z,54.44
2022-11-04T18:29:33.799Z,54.76
2022-11-04T18:33:33.871Z,54.60
2022-11-04T18:37:33.900Z,54.84
2022-11-04T18:41:33.981Z,54.58
2022-11-04T18:45:36.655Z,54.81
2022-11-04T18:49:36.772Z,54.41
2022-11-04T18:53:36.882Z,54.65
2022-11-04T18:57:37.817Z,54.90
2022-11-04T19:01:40.975Z,54.75
2022-11-04T19:05:44.517Z,54.03
2022-11-04T19:09:47.528Z,54.68
2022-11-04T19:13:54.420Z,54.84
2022-11-04T19:17:57.152Z,54.97
2022-11-04T19:21:57.202Z,54.97
2022-11-04T19:26:02.002Z,54.85
2022-11-04T19:30:02.440Z,55.17
2022-11-04T19:34:07.398Z,55.12
2022-11-04T19:38:07.725Z,55.32
2022-11-04T19:42:21.050Z,54.75
2022-11-04T19:46:21.096Z,54.85
2022-11-04T19:50:23.991Z,54.75
2022-11-04T19:54:24.111Z,54.72
2022-11-04T19:58:25.237Z,55.01
2022-11-04T20:02:25.452Z,54.73
2022-11-04T20:06:28.356Z,54.73
2022-11-04T20:10:28.685Z,55.10
2022-11-04T20:14:31.092Z,55.52
2022-11-04T20:18:31.410Z,55.81
2022-11-04T20:22:34.201Z,55.83
2022-11-04T20:26:36.167Z,55.27
2022-11-04T20:30:40.115Z,55.37
2022-11-04T20:34:40.363Z,55.39
2022-11-04T20:38:43.099Z,55.15
2022-11-04T20:42:47.902Z,55.02
2022-11-04T20:46:48.301Z,55.85
2022-11-04T20:50:48.496Z,55.46
2022-11-04T20:54:51.170Z,55.40
2022-11-04T20:58:56.003Z,55.86
2022-11-04T21:02:58.791Z,56.33
2022-11-04T21:06:58.878Z,56.37
2022-11-04T21:11:01.712Z,56.12
2022-11-04T21:15:01.807Z,56.39
2022-11-04T21:19:02.188Z,56.43
2022-11-04T21:23:02.273Z,56.06
2022-11-04T21:27:05.314Z,55.99
2022-11-04T21:31:09.536Z,56.46
2022-11-04T21:35:10.746Z,56.64
2022-11-04T21:39:12.918Z,56.58
2022-11-04T21:43:16.285Z,56.93
2022-11-04T21:47:16.697Z,56.71
2022-11-04T21:51:20.342Z,56.53
2022-11-04T21:55:20.482Z,56.50
2022-11-04T21:59:24.144Z,56.41
2022-11-04T22:03:24.216Z,56.31
2022-11-04T22:07:40.179Z,56.25
2022-11-04T22:11:40.319Z,56.57
2022-11-04T22:15:55.647Z,56.61
2022-11-04T22:19:55.776Z,56.21
2022-11-04T22:23:56.267Z,56.59
2022-11-04T22:27:56.540Z,56.97
2022-11-04T22:31:59.491Z,56.59
2022-11-04T22:35:59.585Z,56.35
2022-11-04T22:39:59.685Z,56.39
2022-11-04T22:44:00.138Z,56.80
2022-11-04T22:48:02.832Z,56.49
2022-11-04T22:52:02.884Z,56.65
2022-11-04T22:56:05.150Z,56.89
2022-11-04T23:00:06.037Z,56.96
2022-11-04T23:04:12.229Z,56.82
2022-11-04T23:08:12.399Z,57.37
2022-11-04T23:12:25.421Z,57.34
2022-11-04T23:16:39.683Z,57.30
2022-11-04T23:20:42.651Z,57.35
2022-11-04T23:24:55.248Z,57.53
2022-11-04T23:29:07.816Z,57.55
2022-11-04T23:33:12.531Z,56.94
2022-11-04T23:37:14.064Z,56.63
2022-11-04T23:41:26.653Z,56.72
2022-11-04T23:45:40.192Z,56.70
2022-11-04T23:49:52.722Z,57.48
2022-11-04T23:54:07.859Z,57.35
2022-11-04T23:58:20.376Z,57.27
